createdAt,value
2022-09-18T00:01:52.247Z,101053.47
2022-09-18T00:06:53.965Z,101046.38
2022-09-18T00:11:56.663Z,101051.72
2022-09-18T00:16:58.801Z,101051.25
2022-09-18T00:22:00.862Z,101047.81
2022-09-18T00:27:02.736Z,101040.34
2022-09-18T00:32:04.490Z,101052.97
2022-09-18T00:37:06.453Z,101043.16
2022-09-18T00:42:12.783Z,101039.41
2022-09-18T00:47:22.982Z,101034.44
2022-09-18T00:52:31.848Z,101034.06
2022-09-18T00:57:38.145Z,101046.75
2022-09-18T01:02:41.742Z,101050.41
2022-09-18T01:08:05.480Z,101063.09
2022-09-18T01:13:32.558Z,101040.56
2022-09-18T01:18:57.906Z,101039.31
2022-09-18T01:24:28.598Z,101041.50
2022-09-18T01:29:51.954Z,101042.38
2022-09-18T01:35:36.873Z,101042.75
2022-09-18T01:40:41.901Z,101044.66
2022-09-18T01:45:50.047Z,101032.53
2022-09-18T01:51:01.676Z,101041.41
2022-09-18T01:56:10.032Z,101032.44
2022-09-18T02:01:16.087Z,101040.34
2022-09-18T02:06:29.169Z,101031.69
2022-09-18T02:11:33.930Z,101027.34
2022-09-18T02:16:49.857Z,101030.78
2022-09-18T02:21:54.128Z,101025.19
2022-09-18T02:26:57.135Z,101023.16
2022-09-18T02:32:02.401Z,101027.34
2022-09-18T02:37:34.805Z,101017.44
2022-09-18T02:43:18.006Z,101018.69
2022-09-18T02:48:33.719Z,101009.31
2022-09-18T02:53:47.507Z,101011.06
2022-09-18T02:58:56.537Z,101016.50
2022-09-18T03:04:06.545Z,101011.31
2022-09-18T03:09:08.601Z,100990.69
2022-09-18T03:14:11.044Z,100994.63
2022-09-18T03:19:14.590Z,100991.44
2022-09-18T03:24:16.481Z,100988.69
2022-09-18T03:29:18.574Z,100993.47
2022-09-18T03:34:20.703Z,100996.03
2022-09-18T03:39:22.579Z,100992.50
2022-09-18T03:44:24.400Z,100990.81
2022-09-18T03:49:26.902Z,100990.59
2022-09-18T03:54:28.723Z,100995.94
2022-09-18T03:59:31.265Z,100989.75
2022-09-18T04:04:33.237Z,100993.28
2022-09-18T04:09:35.024Z,100977.44
2022-09-18T04:14:36.885Z,100978.28
2022-09-18T04:19:38.653Z,100976.38
2022-09-18T04:24:40.334Z,100980.00
2022-09-18T04:29:42.468Z,100977.44
2022-09-18T04:34:44.237Z,100975.91
2022-09-18T04:39:47.366Z,100981.03
2022-09-18T04:44:49.568Z,100977.59
2022-09-18T04:49:51.727Z,100976.09
2022-09-18T04:54:53.698Z,100973.22
2022-09-18T04:59:55.495Z,100969.72
2022-09-18T05:04:57.307Z,100974.84
2022-09-18T05:09:59.617Z,100967.88
2022-09-18T05:15:01.662Z,100972.19
2022-09-18T05:20:03.689Z,100973.41
2022-09-18T05:25:06.015Z,100978.66
2022-09-18T05:30:08.674Z,100971.88
2022-09-18T05:35:10.837Z,100973.16
2022-09-18T05:40:12.869Z,100976.84
2022-09-18T05:45:17.009Z,100966.06
2022-09-18T05:50:18.966Z,100970.56
2022-09-18T05:55:21.403Z,100972.38
2022-09-18T06:00:24.396Z,100964.63
2022-09-18T06:05:27.837Z,100969.03
2022-09-18T06:10:32.777Z,100987.06
2022-09-18T06:15:36.022Z,100985.06
2022-09-18T06:20:37.822Z,100993.78
2022-09-18T06:25:39.588Z,100997.22
2022-09-18T06:30:41.395Z,101001.13
2022-09-18T06:35:43.467Z,100990.44
2022-09-18T06:40:52.409Z,100973.63
2022-09-18T06:45:55.735Z,100972.25
2022-09-18T06:50:59.311Z,100975.22
2022-09-18T06:56:03.503Z,100972.66
2022-09-18T07:01:05.563Z,100978.88
2022-09-18T07:06:10.594Z,100986.22
2022-09-18T07:11:12.363Z,100982.69
2022-09-18T07:16:14.668Z,100985.94
2022-09-18T07:21:16.638Z,100986.41
2022-09-18T07:26:19.435Z,100986.50
2022-09-18T07:31:21.305Z,100977.72
2022-09-18T07:36:23.196Z,100990.34
2022-09-18T07:41:25.066Z,100990.88
2022-09-18T07:46:26.937Z,100987.38
2022-09-18T07:51:29.166Z,100983.75
2022-09-18T07:56:30.908Z,100979.63
2022-09-18T08:01:34.565Z,100985.94
2022-09-18T08:06:36.383Z,100987.28
2022-09-18T08:11:38.408Z,100987.25
2022-09-18T08:16:40.374Z,100995.28
2022-09-18T08:21:42.847Z,100994.16
2022-09-18T08:26:44.980Z,100991.88
2022-09-18T08:31:47.286Z,101007.41
2022-09-18T08:36:49.600Z,101007.56
2022-09-18T08:42:10.378Z,101002.91
2022-09-18T08:47:34.675Z,100983.00
2022-09-18T08:52:42.285Z,100980.72
2022-09-18T08:57:48.723Z,100978.91
2022-09-18T09:03:29.542Z,100976.50
2022-09-18T09:08:57.888Z,100983.88
2022-09-18T09:14:11.126Z,100994.41
2022-09-18T09:19:44.047Z,100994.56
2022-09-18T09:25:18.216Z,101004.16
2022-09-18T09:30:21.234Z,100999.41
2022-09-18T09:35:29.870Z,101009.31
2022-09-18T09:40:47.096Z,100992.03
2022-09-18T09:45:51.935Z,100995.66
2022-09-18T09:51:03.302Z,100992.78
2022-09-18T09:56:42.971Z,100980.09
2022-09-18T10:02:09.259Z,100982.59
2022-09-18T10:07:25.228Z,100977.91
2022-09-18T10:12:30.119Z,100971.78
2022-09-18T10:17:37.676Z,100974.56
2022-09-18T10:22:40.619Z,100966.81
2022-09-18T10:27:43.162Z,100959.06
2022-09-18T10:32:45.470Z,100950.09
2022-09-18T10:37:48.867Z,100951.38
2022-09-18T10:42:55.983Z,100943.28
2022-09-18T10:48:14.211Z,100947.56
2022-09-18T10:53:27.439Z,100947.25
2022-09-18T10:58:32.754Z,100959.19
2022-09-18T11:03:45.984Z,100963.59
2022-09-18T11:08:51.288Z,100965.41
2022-09-18T11:14:01.502Z,100969.88
2022-09-18T11:19:11.882Z,100974.84
2022-09-18T11:24:26.793Z,100967.78
2022-09-18T11:29:29.359Z,100969.63
2022-09-18T11:34:33.305Z,100963.13
2022-09-18T11:39:39.062Z,100957.09
2022-09-18T11:44:40.968Z,100949.66
2022-09-18T11:49:49.017Z,100949.72
2022-09-18T11:55:20.725Z,100941.38
2022-09-18T12:00:26.281Z,100943.66
2022-09-18T12:06:04.058Z,100943.53
2022-09-18T12:11:17.678Z,100939.16
2022-09-18T12:16:37.884Z,100934.38
2022-09-18T12:22:15.530Z,100930.75
2022-09-18T12:27:32.658Z,100928.25
2022-09-18T12:32:58.332Z,100933.81
2022-09-18T12:38:09.172Z,100922.06
2022-09-18T12:43:39.581Z,100929.91
2022-09-18T12:49:03.416Z,100932.00
2022-09-18T12:54:37.466Z,100916.53
2022-09-18T13:00:08.574Z,100928.25
2022-09-18T13:05:18.510Z,100921.50
2022-09-18T13:10:31.308Z,100929.91
2022-09-18T13:15:40.316Z,100935.63
2022-09-18T13:20:45.994Z,100922.28
2022-09-18T13:25:51.892Z,100923.03
2022-09-18T13:31:15.609Z,100927.03
2022-09-18T13:36:45.470Z,100925.97
2022-09-18T13:41:51.134Z,100931.56
2022-09-18T13:46:55.335Z,100930.09
2022-09-18T13:52:17.305Z,100927.22
2022-09-18T13:57:20.755Z,100916.16
2022-09-18T14:02:31.817Z,100920.63
2022-09-18T14:07:34.208Z,100911.28
2022-09-18T14:12:36.684Z,100904.88
2022-09-18T14:17:39.158Z,100897.63
2022-09-18T14:22:41.550Z,100897.25
2022-09-18T14:27:57.465Z,100897.34
2022-09-18T14:33:03.653Z,100892.59
2022-09-18T14:38:39.835Z,100892.66
2022-09-18T14:43:51.110Z,100885.25
2022-09-18T14:48:53.888Z,100885.25
2022-09-18T14:53:59.238Z,100871.97
2022-09-18T14:59:07.464Z,100877.00
2022-09-18T15:04:17.443Z,100883.03
2022-09-18T15:09:29.243Z,100876.84
2022-09-18T15:14:40.509Z,100869.97
2022-09-18T15:20:20.554Z,100871.19
2022-09-18T15:25:34.096Z,100859.38
2022-09-18T15:30:36.830Z,100866.16
2022-09-18T15:35:39.316Z,100859.91
2022-09-18T15:40:41.669Z,100867.56
2022-09-18T15:46:02.369Z,100866.41
2022-09-18T15:51:14.241Z,100872.63
2022-09-18T15:56:21.565Z,100873.41
2022-09-18T16:01:29.694Z,100881.69
2022-09-18T16:06:33.748Z,100875.47
2022-09-18T16:11:37.686Z,100884.09
2022-09-18T16:16:39.601Z,100869.38
2022-09-18T16:21:44.097Z,100873.97
2022-09-18T16:26:46.143Z,100871.66
2022-09-18T16:31:49.225Z,100878.53
2022-09-18T16:36:51.924Z,100875.47
2022-09-18T16:41:54.379Z,100876.06
2022-09-18T16:47:06.548Z,100868.81
2022-09-18T16:52:09.610Z,100867.75
2022-09-18T16:57:16.081Z,100871.66
2022-09-18T17:02:24.355Z,100870.06
2022-09-18T17:07:30.085Z,100865.34
2022-09-18T17:12:32.077Z,100869.47
2022-09-18T17:17:34.593Z,100861.63
2022-09-18T17:22:37.163Z,100854.19
2022-09-18T17:27:43.445Z,100861.84
2022-09-18T17:32:48.454Z,100858.84
2022-09-18T17:37:51.977Z,100860.22
2022-09-18T17:42:54.120Z,100862.69
2022-09-18T17:47:56.144Z,100860.09
2022-09-18T17:52:57.921Z,100872.03
2022-09-18T17:57:59.598Z,100876.22
2022-09-18T18:03:01.548Z,100877.50
2022-09-18T18:08:03.300Z,100890.16
2022-09-18T18:13:06.055Z,100936.66
2022-09-18T18:18:07.835Z,100946.56
2022-09-18T18:23:13.778Z,100959.34
2022-09-18T18:28:16.064Z,100973.38
2022-09-18T18:33:18.077Z,100971.56
2022-09-18T18:38:20.826Z,100977.09
2022-09-18T18:43:23.970Z,100994.06
2022-09-18T18:48:25.797Z,100997.94
2022-09-18T18:53:27.628Z,100999.34
2022-09-18T18:58:31.384Z,100984.25
2022-09-18T19:03:39.368Z,100969.19
2022-09-18T19:08:46.712Z,100973.28
2022-09-18T19:13:53.201Z,100959.44
2022-09-18T19:18:58.713Z,101002.28
2022-09-18T19:24:00.988Z,101007.63
2022-09-18T19:29:07.079Z,101018.03
2022-09-18T19:34:14.505Z,101020.78
2022-09-18T19:39:17.831Z,101031.13
2022-09-18T19:44:34.224Z,101034.25
2022-09-18T19:49:38.222Z,101041.72
2022-09-18T19:54:39.896Z,101053.53
2022-09-18T19:59:42.024Z,101050.28
2022-09-18T20:04:44.179Z,101054.84
2022-09-18T20:09:46.338Z,101073.97
2022-09-18T20:14:48.235Z,101075.44
2022-09-18T20:19:50.035Z,101080.28
2022-09-18T20:29:54.067Z,101082.66
2022-09-18T20:34:56.135Z,101085.41
2022-09-18T20:39:57.880Z,101080.84
2022-09-18T20:45:02.685Z,101078.88
2022-09-18T20:50:06.951Z,101089.06
2022-09-18T20:55:12.843Z,101086.66
2022-09-18T21:00:16.350Z,101093.56
2022-09-18T21:05:18.214Z,101096.84
2022-09-18T21:10:19.980Z,101103.63
2022-09-18T21:15:21.903Z,101105.25
2022-09-18T21:20:23.905Z,101103.72
2022-09-18T21:25:26.241Z,101116.13
2022-09-18T21:30:28.345Z,101112.34
2022-09-18T21:35:30.270Z,101121.97
2022-09-18T21:40:32.040Z,101130.34
2022-09-18T21:45:36.902Z,101135.00
2022-09-18T21:50:39.625Z,101128.03
2022-09-18T21:55:41.521Z,101138.72
2022-09-18T22:00:43.336Z,101149.75
2022-09-18T22:05:45.796Z,101150.59
2022-09-18T22:10:47.879Z,101149.06
2022-09-18T22:15:53.625Z,101135.59
2022-09-18T22:20:57.462Z,101144.56
2022-09-18T22:26:04.958Z,101151.38
2022-09-18T22:31:07.298Z,101160.44
2022-09-18T22:36:09.080Z,101165.38
2022-09-18T22:41:10.891Z,101168.59
2022-09-18T22:46:15.495Z,101161.56
2022-09-18T22:51:21.049Z,101163.25
2022-09-18T22:56:24.802Z,101172.81
2022-09-18T23:01:33.566Z,101173.78
2022-09-18T23:06:35.971Z,101170.50
2022-09-18T23:11:37.576Z,101172.06
2022-09-18T23:16:39.308Z,101178.44
2022-09-18T23:21:41.168Z,101174.72
2022-09-18T23:26:45.125Z,101172.81
2022-09-18T23:31:50.768Z,101168.59
2022-09-18T23:36:54.904Z,101173.03
2022-09-18T23:41:59.055Z,101176.47
2022-09-18T23:47:00.966Z,101176.81
2022-09-18T23:52:02.997Z,101183.97
2022-09-18T23:57:04.754Z,101182.16
